TimeCDT,TemperatureF,Dew PointF,Humidity,Sea Level PressureIn,VisibilityMPH,Wind Direction,Wind SpeedMPH,Gust SpeedMPH,PrecipitationIn,Events,Conditions,WindDirDegrees,DateUTC
12:04 AM,60.8,60.8,100,29.99,2.0,SE,12.7,-,N/A,,Overcast,140,2012-10-13 05:04:00
12:16 AM,62.6,60.8,94,29.97,4.0,SSE,11.5,-,N/A,,Overcast,150,2012-10-13 05:16:00
12:52 AM,64.0,62.1,93,29.91,5.0,SSE,15.0,-,N/A,,Overcast,150,2012-10-13 05:52:00
3:15 AM,66.2,64.4,94,29.90,7.0,South,13.8,24.2,N/A,,Mostly Cloudy,170,2012-10-13 08:15:00
3:31 AM,66.2,64.4,94,29.91,7.0,South,18.4,24.2,N/A,Thunderstorm,Mostly Cloudy,180,2012-10-13 08:31:00
3:45 AM,66.2,64.4,94,29.90,6.0,South,15.0,26.5,0.00,Rain,Light Rain,180,2012-10-13 08:45:00
3:52 AM,66.9,64.0,90,29.86,7.0,South,20.7,27.6,0.00,Rain,Light Rain,190,2012-10-13 08:52:00
4:24 AM,68.0,64.4,88,29.94,7.0,WSW,9.2,-,N/A,,Mostly Cloudy,250,2012-10-13 09:24:00
5:52 AM,64.0,61.0,90,29.89,10.0,NW,3.5,-,0.00,,Overcast,320,2012-10-13 10:52:00
6:13 AM,62.6,60.8,94,29.92,10.0,NNW,3.5,-,0.01,Rain,Light Rain,330,2012-10-13 11:13:00
6:24 AM,62.6,60.8,94,29.93,10.0,NNW,3.5,-,0.01,Rain-Thunderstorm,Light Thunderstorms and Rain,330,2012-10-13 11:24:00
6:48 AM,62.6,59.0,88,29.93,1.8,NW,12.7,-,0.16,Rain-Thunderstorm,Heavy Thunderstorms and Rain,310,2012-10-13 11:48:00
6:52 AM,62.1,60.1,93,29.89,1.5,NNW,9.2,-,0.19,Rain-Thunderstorm,Heavy Thunderstorms and Rain,330,2012-10-13 11:52:00
7:02 AM,62.6,60.8,94,29.93,2.0,WNW,6.9,-,0.09,Rain-Thunderstorm,Heavy Thunderstorms and Rain,300,2012-10-13 12:02:00
7:11 AM,62.6,60.8,94,29.93,3.0,WSW,3.5,-,0.18,Rain-Thunderstorm,Heavy Thunderstorms and Rain,250,2012-10-13 12:11:00
7:26 AM,62.6,60.8,94,29.90,7.0,Calm,Calm,-,0.20,Rain,Light Rain,0,2012-10-13 12:26:00
7:52 AM,62.1,60.1,93,29.85,7.0,Calm,Calm,-,0.20,,Mostly Cloudy,0,2012-10-13 12:52:00
8:14 AM,62.6,60.8,94,29.89,7.0,SSE,5.8,-,N/A,,Mostly Cloudy,150,2012-10-13 13:14:00
8:58 AM,62.6,60.8,94,29.86,8.0,SE,12.7,-,N/A,,Overcast,130,2012-10-13 13:58:00
9:52 AM,64.9,62.1,90,29.81,8.0,SE,11.5,-,N/A,,Overcast,140,2012-10-13 14:52:00
10:52 AM,71.1,66.0,84,29.78,6.0,South,16.1,-,N/A,,Haze,170,2012-10-13 15:52:00
11:37 AM,71.6,66.2,83,29.80,9.0,South,13.8,-,N/A,,Overcast,180,2012-10-13 16:37:00
11:52 AM,72.0,66.9,84,29.75,9.0,South,13.8,21.9,N/A,,Overcast,170,2012-10-13 16:52:00
11:59 AM,71.6,66.2,83,29.79,9.0,South,18.4,24.2,N/A,,Overcast,180,2012-10-13 16:59:00
12:52 PM,72.0,66.9,84,29.72,9.0,South,18.4,-,N/A,,Overcast,180,2012-10-13 17:52:00
1:52 PM,77.0,66.9,71,29.65,10.0,South,19.6,25.3,N/A,,Overcast,180,2012-10-13 18:52:00
2:36 PM,78.8,66.2,65,29.69,10.0,South,24.2,29.9,N/A,,Mostly Cloudy,190,2012-10-13 19:36:00
2:52 PM,80.1,66.0,62,29.61,10.0,South,21.9,31.1,N/A,,Mostly Cloudy,180,2012-10-13 19:52:00
3:52 PM,82.0,66.0,58,29.59,10.0,South,23.0,26.5,N/A,,Partly Cloudy,190,2012-10-13 20:52:00
4:52 PM,82.0,64.9,56,29.54,10.0,SSE,20.7,28.8,N/A,,Partly Cloudy,160,2012-10-13 21:52:00
5:52 PM,75.0,63.0,66,29.55,10.0,SE,25.3,31.1,N/A,,Clear,140,2012-10-13 22:52:00
7:52 PM,70.0,55.9,61,29.57,10.0,NW,5.8,-,N/A,,Clear,320,2012-10-14 00:52:00
9:52 PM,61.0,53.1,75,29.61,10.0,West,6.9,-,N/A,,Clear,280,2012-10-14 02:52:00
10:52 PM,61.0,46.9,60,29.60,10.0,West,11.5,-,N/A,,Clear,280,2012-10-14 03:52:00